Chinquapin, North Carolina
Current Conditions -  °F | °C
As of 8:55 PM on Monday 24 Nov 2014 (Local Time) from KOAJ Reporting Station
Overcast Overcast  
Wind Chill: 66°   Ceiling: 7000
Heat Index: 66°   Visibility: 10mi
Dew Point: 63°   Wind: 12mph
Humidity: 88%   Direction: 200°SSW
Pressure: 29.95"   Gusts: 17mph
Location:  34.83°N, 77.82°W
Report Text: KOAJ 250155Z AUTO 20010G15KT 10SM FEW060 BKN070 OVC110 19/17 A2995 RMK AO1
Loading
Personal Weather Stations






























Interactive Weather Map New forecast layout! Learn more

10-Day Weather Forecast

Advertisements
Track Severe Weather on mobile